Terminal Aerodrome Forecast
Issued by NWS Wilmington, NC

Home | Current Version | Previous Version | Text Only | Print | Product List | Glossary On
Versions: 1 2 3 4 5 6 7 8 9 10 11 12 13 14 15
000
FTUS42 KILM 251832 CCA
TAFLBT
TAF COR
KLBT 251832Z 2518/2618 17006KT P6SM VCSH SCT050 OVC100
     FM252100 20009G15KT P6SM SCT014 BKN020
     FM260200 22010KT P6SM SCT007 OVC016
     FM261400 29011KT P6SM SCT030=

USA.gov is the U.S. government's official web portal to all federal, state and local government web resources and services.